| time (UTC) | temp C | wind direction | speed KPH | gust KPH | rain 1hr cm | rain 24hr cm | rain mn cm | humidity % | barometer mb |
| 20260507223029 | 24 | 27 | 12.9 | 22.5 | 0.00 | 0.00 | 0.00 | 30 | 1017.5 |
| 20260507221535 | 24 | 23 | 12.9 | 22.5 | 0.00 | 0.00 | 0.00 | 30 | 1017.7 |
| 20260507214534 | 23 | 19 | 9.7 | 22.5 | 0.00 | 0.00 | 0.00 | 33 | 1018.0 |
| 20260507213031 | 22 | 68 | 8.0 | 17.7 | 0.00 | 0.00 | 0.00 | 34 | 1018.3 |
| 20260507210031 | 22 | 45 | 6.4 | 17.7 | 0.00 | 0.00 | 0.00 | 34 | 1018.5 |
| 20260507204532 | 22 | 19 | 9.7 | 19.3 | 0.00 | 0.00 | 0.00 | 35 | 1018.6 |
| 20260507201650 | 21 | 39 | 4.8 | 16.1 | 0.00 | 0.00 | 0.00 | 37 | 1019.0 |
| 20260507200032 | 21 | 14 | 3.2 | 12.9 | 0.00 | 0.00 | 0.00 | 36 | 1019.2 |
| 20260507193031 | 21 | 42 | 8.0 | 16.1 | 0.00 | 0.00 | 0.00 | 39 | 1019.3 |
| 20260507191534 | 21 | 62 | 6.4 | 17.7 | 0.00 | 0.00 | 0.00 | 40 | 1019.5 |
| 20260507190029 | 20 | 45 | 8.0 | 17.7 | 0.00 | 0.00 | 0.00 | 43 | 1019.6 |
| 20260507184535 | 19 | 43 | 6.4 | 16.1 | 0.00 | 0.00 | 0.00 | 46 | 1019.8 |
| 20260507181531 | 19 | 34 | 8.0 | 16.1 | 0.00 | 0.00 | 0.00 | 48 | 1020.0 |
| 20260507180107 | 18 | 44 | 9.7 | 22.5 | 0.00 | 0.00 | 0.00 | 50 | 1020.0 |
| 20260507174530 | 18 | 52 | 8.0 | 17.7 | 0.00 | 0.00 | 0.00 | 52 | 1020.0 |
| 20260507173034 | 18 | 40 | 9.7 | 19.3 | 0.00 | 0.00 | 0.00 | 53 | 1020.2 |
| 20260507171609 | 18 | 62 | 9.7 | 19.3 | 0.00 | 0.00 | 0.00 | 54 | 1020.2 |
| 20260507170033 | 17 | 40 | 9.7 | 16.1 | 0.00 | 0.00 | 0.00 | 56 | 1020.2 |
| 20260507164531 | 17 | 15 | 6.4 | 14.5 | 0.00 | 0.00 | 0.00 | 58 | 1020.2 |
| 20260507163031 | 16 | 279 | 6.4 | 16.1 | 0.00 | 0.00 | 0.00 | 61 | 1020.1 |
| 20260507161539 | 15 | 292 | 6.4 | 14.5 | 0.00 | 0.00 | 0.00 | 67 | 1020.2 |
| 20260507153033 | 11 | 333 | 1.6 | 6.4 | 0.00 | 0.00 | 0.00 | 84 | 1020.8 |
| 20260507151621 | 10 | 305 | 1.6 | 4.8 | 0.00 | 0.00 | 0.00 | 86 | 1020.8 |
| 20260507144531 | 8 | 336 | 1.6 | 4.8 | 0.00 | 0.00 | 0.00 | 89 | 1020.9 |
| 20260507141535 | 7 | 100 | 3.2 | 8.0 | 0.00 | 0.00 | 0.00 | 91 | 1020.7 |
| 20260507140107 | 7 | 108 | 3.2 | 6.4 | 0.00 | 0.00 | 0.00 | 90 | 1020.5 |
| 20260507134535 | 6 | 128 | 3.2 | 8.0 | 0.00 | 0.00 | 0.00 | 90 | 1020.4 |
| 20260507133109 | 6 | 104 | 4.8 | 9.7 | 0.00 | 0.00 | 0.00 | 89 | 1020.5 |
| 20260507131536 | 6 | 92 | 6.4 | 9.7 | 0.00 | 0.00 | 0.00 | 89 | 1020.4 |
| 20260507130110 | 7 | 106 | 4.8 | 9.7 | 0.00 | 0.00 | 0.00 | 88 | 1020.3 |
| 20260507124626 | 7 | 99 | 4.8 | 11.3 | 0.00 | 0.00 | 0.00 | 87 | 1020.4 |
| 20260507123042 | 7 | 93 | 3.2 | 8.0 | 0.00 | 0.00 | 0.00 | 87 | 1020.2 |
| 20260507121538 | 7 | 79 | 6.4 | 12.9 | 0.00 | 0.00 | 0.00 | 86 | 1020.0 |
| 20260507114544 | 7 | 85 | 6.4 | 14.5 | 0.00 | 0.00 | 0.00 | 86 | 1020.0 |
| 20260507111543 | 8 | 111 | 4.8 | 12.9 | 0.00 | 0.00 | 0.00 | 84 | 1019.7 |
| 20260507110129 | 8 | 131 | 3.2 | 8.0 | 0.00 | 0.00 | 0.00 | 82 | 1019.7 |
| 20260507104541 | 9 | 74 | 8.0 | 12.9 | 0.00 | 0.00 | 0.00 | 81 | 1019.6 |
| 20260507103042 | 10 | 82 | 8.0 | 14.5 | 0.00 | 0.00 | 0.00 | 80 | 1019.6 |
| 20260507101540 | 10 | 93 | 6.4 | 14.5 | 0.00 | 0.00 | 0.00 | 78 | 1019.6 |
| 20260507100052 | 10 | 84 | 8.0 | 16.1 | 0.00 | 0.00 | 0.00 | 75 | 1019.6 |
| 20260507094540 | 11 | 84 | 6.4 | 11.3 | 0.00 | 0.00 | 0.00 | 71 | 1019.6 |
| 20260507093032 | 11 | 52 | 3.2 | 11.3 | 0.00 | 0.00 | 0.00 | 71 | 1019.7 |
| 20260507091532 | 11 | 313 | 3.2 | 9.7 | 0.00 | 0.00 | 0.00 | 72 | 1019.6 |
| 20260507084530 | 12 | 14 | 9.7 | 17.7 | 0.00 | 0.00 | 0.00 | 71 | 1019.6 |
| 20260507083038 | 11 | 5 | 9.7 | 17.7 | 0.00 | 0.00 | 0.00 | 75 | 1019.7 |
| 20260507081531 | 11 | 21 | 9.7 | 17.7 | 0.00 | 0.00 | 0.00 | 73 | 1019.7 |
| 20260507080029 | 12 | 12 | 11.3 | 19.3 | 0.00 | 0.00 | 0.00 | 70 | 1019.7 |
| 20260507074531 | 13 | 7 | 12.9 | 22.5 | 0.00 | 0.00 | 0.00 | 64 | 1019.6 |
| 20260507073032 | 15 | 348 | 14.5 | 27.4 | 0.00 | 0.00 | 0.00 | 56 | 1019.4 |
| 20260507071537 | 15 | 329 | 16.1 | 29.0 | 0.00 | 0.00 | 0.00 | 55 | 1019.4 |
| 20260507070108 | 15 | 327 | 19.3 | 33.8 | 0.00 | 0.00 | 0.00 | 58 | 1019.4 |
| 20260507064647 | 13 | 325 | 20.9 | 33.8 | 0.00 | 0.00 | 0.00 | 63 | 1019.6 |
| 20260507063110 | 13 | 334 | 12.9 | 25.7 | 0.00 | 0.00 | 0.00 | 65 | 1019.9 |
| 20260507061530 | 13 | 32 | 9.7 | 19.3 | 0.00 | 0.00 | 0.00 | 64 | 1020.1 |
| 20260507060028 | 13 | 65 | 11.3 | 22.5 | 0.00 | 0.00 | 0.00 | 61 | 1020.1 |
| 20260507054613 | 13 | 72 | 9.7 | 17.7 | 0.00 | 0.00 | 0.00 | 58 | 1020.2 |
| 20260507051610 | 15 | 14 | 11.3 | 24.1 | 0.00 | 0.00 | 0.00 | 51 | 1020.3 |
| 20260507050041 | 16 | 313 | 17.7 | 30.6 | 0.00 | 0.00 | 0.00 | 50 | 1020.1 |
| 20260507043030 | 16 | 312 | 17.7 | 29.0 | 0.00 | 0.00 | 0.00 | 50 | 1020.2 |
| 20260507041535 | 16 | 316 | 16.1 | 30.6 | 0.00 | 0.00 | 0.00 | 49 | 1020.2 |
| 20260507040043 | 16 | 318 | 16.1 | 25.7 | 0.00 | 0.00 | 0.00 | 49 | 1020.1 |
| 20260507034533 | 16 | 323 | 17.7 | 32.2 | 0.00 | 0.00 | 0.00 | 48 | 1020.0 |
| 20260507033029 | 17 | 321 | 17.7 | 33.8 | 0.00 | 0.00 | 0.00 | 48 | 1019.8 |
| 20260507031529 | 17 | 319 | 19.3 | 37.0 | 0.00 | 0.00 | 0.00 | 47 | 1019.7 |
| 20260507030030 | 18 | 324 | 16.1 | 32.2 | 0.00 | 0.00 | 0.00 | 47 | 1019.7 |
| 20260507024530 | 18 | 333 | 11.3 | 27.4 | 0.00 | 0.00 | 0.00 | 46 | 1019.6 |
| 20260507023035 | 18 | 334 | 19.3 | 37.0 | 0.00 | 0.00 | 0.00 | 45 | 1019.4 |
| 20260507021532 | 18 | 334 | 17.7 | 35.4 | 0.00 | 0.00 | 0.00 | 45 | 1019.4 |
| 20260507020036 | 18 | 355 | 9.7 | 32.2 | 0.00 | 0.00 | 0.00 | 47 | 1019.5 |
| 20260507013035 | 20 | 19 | 8.0 | 17.7 | 0.00 | 0.00 | 0.00 | 45 | 1019.3 |
| 20260507011529 | 20 | 3 | 8.0 | 22.5 | 0.00 | 0.00 | 0.00 | 43 | 1019.3 |
| 20260507010032 | 20 | 360 | 11.3 | 20.9 | 0.00 | 0.00 | 0.00 | 42 | 1019.1 |
| 20260507003033 | 21 | 333 | 14.5 | 29.0 | 0.00 | 0.00 | 0.00 | 40 | 1018.7 |
| 20260507001536 | 22 | 341 | 14.5 | 30.6 | 0.00 | 0.00 | 0.00 | 40 | 1018.6 |
| 20260506234536 | 22 | 350 | 12.9 | 27.4 | 0.00 | 0.00 | 0.00 | 40 | 1018.5 |
| 20260506233110 | 24 | 343 | 16.1 | 33.8 | 0.00 | 0.00 | 0.00 | 35 | 1018.4 |
| 20260506231535 | 25 | 341 | 17.7 | 33.8 | 0.00 | 0.00 | 0.00 | 35 | 1018.3 |
| 20260506230111 | 24 | 336 | 17.7 | 38.6 | 0.00 | 0.00 | 0.00 | 35 | 1018.4 |
| 20260506224535 | 24 | 319 | 22.5 | 43.5 | 0.00 | 0.00 | 0.00 | 35 | 1018.7 |